sensor_id;sensor_type;location;lat;lon;timestamp;temperature;humidity
40534;DHT22;26233;51.894;10.192;2022-07-10T00:00:33;17.30;38.30
40534;DHT22;26233;51.894;10.192;2022-07-10T00:03:00;17.30;38.30
40534;DHT22;26233;51.894;10.192;2022-07-10T00:05:27;17.30;38.40
40534;DHT22;26233;51.894;10.192;2022-07-10T00:07:55;17.30;38.40
40534;DHT22;26233;51.894;10.192;2022-07-10T00:10:22;17.30;38.30
40534;DHT22;26233;51.894;10.192;2022-07-10T00:12:51;17.30;38.30
40534;DHT22;26233;51.894;10.192;2022-07-10T00:15:19;17.30;38.60
40534;DHT22;26233;51.894;10.192;2022-07-10T00:17:46;17.20;38.20
40534;DHT22;26233;51.894;10.192;2022-07-10T00:20:16;17.20;38.30
40534;DHT22;26233;51.894;10.192;2022-07-10T00:22:43;17.10;38.20
40534;DHT22;26233;51.894;10.192;2022-07-10T00:25:12;17.10;38.30
40534;DHT22;26233;51.894;10.192;2022-07-10T00:27:39;17.10;38.40
40534;DHT22;26233;51.894;10.192;2022-07-10T00:30:10;17.10;38.40
40534;DHT22;26233;51.894;10.192;2022-07-10T00:32:40;17.10;38.40
40534;DHT22;26233;51.894;10.192;2022-07-10T00:35:08;17.10;38.30
40534;DHT22;26233;51.894;10.192;2022-07-10T00:37:35;17.00;38.20
40534;DHT22;26233;51.894;10.192;2022-07-10T00:40:04;17.00;38.30
40534;DHT22;26233;51.894;10.192;2022-07-10T00:42:32;17.00;38.30
40534;DHT22;26233;51.894;10.192;2022-07-10T00:44:59;16.90;38.20
40534;DHT22;26233;51.894;10.192;2022-07-10T00:47:28;16.90;38.20
40534;DHT22;26233;51.894;10.192;2022-07-10T00:49:55;16.90;38.30
40534;DHT22;26233;51.894;10.192;2022-07-10T00:52:22;16.90;38.30
40534;DHT22;26233;51.894;10.192;2022-07-10T00:54:50;16.80;38.20
40534;DHT22;26233;51.894;10.192;2022-07-10T00:57:18;16.80;38.30
40534;DHT22;26233;51.894;10.192;2022-07-10T00:59:45;16.80;38.40
40534;DHT22;26233;51.894;10.192;2022-07-10T01:02:13;16.80;38.40
40534;DHT22;26233;51.894;10.192;2022-07-10T01:04:42;16.80;38.40
40534;DHT22;26233;51.894;10.192;2022-07-10T01:07:10;16.80;38.40
40534;DHT22;26233;51.894;10.192;2022-07-10T01:09:37;16.70;38.30
40534;DHT22;26233;51.894;10.192;2022-07-10T01:12:06;16.70;39.00
40534;DHT22;26233;51.894;10.192;2022-07-10T01:14:34;16.70;38.50
40534;DHT22;26233;51.894;10.192;2022-07-10T01:17:04;16.70;38.50
40534;DHT22;26233;51.894;10.192;2022-07-10T01:19:31;16.70;38.50
40534;DHT22;26233;51.894;10.192;2022-07-10T01:22:00;16.70;38.50
40534;DHT22;26233;51.894;10.192;2022-07-10T01:24:27;16.60;38.50
40534;DHT22;26233;51.894;10.192;2022-07-10T01:26:54;16.70;38.60
40534;DHT22;26233;51.894;10.192;2022-07-10T01:29:22;16.60;38.50
40534;DHT22;26233;51.894;10.192;2022-07-10T01:31:49;16.60;38.60
40534;DHT22;26233;51.894;10.192;2022-07-10T01:34:16;16.60;38.60
40534;DHT22;26233;51.894;10.192;2022-07-10T01:36:44;16.60;38.60
40534;DHT22;26233;51.894;10.192;2022-07-10T01:39:12;16.60;38.70
40534;DHT22;26233;51.894;10.192;2022-07-10T01:41:42;16.60;38.70
40534;DHT22;26233;51.894;10.192;2022-07-10T01:44:09;16.60;38.70
40534;DHT22;26233;51.894;10.192;2022-07-10T01:46:43;16.60;38.70
40534;DHT22;26233;51.894;10.192;2022-07-10T01:49:11;16.60;38.70
40534;DHT22;26233;51.894;10.192;2022-07-10T01:51:38;16.60;38.70
40534;DHT22;26233;51.894;10.192;2022-07-10T01:54:06;16.50;38.70
40534;DHT22;26233;51.894;10.192;2022-07-10T01:56:37;16.50;38.80
40534;DHT22;26233;51.894;10.192;2022-07-10T01:59:05;16.50;39.50
40534;DHT22;26233;51.894;10.192;2022-07-10T02:01:32;16.40;38.80
40534;DHT22;26233;51.894;10.192;2022-07-10T02:03:59;16.40;38.90
40534;DHT22;26233;51.894;10.192;2022-07-10T02:06:44;16.40;39.00
40534;DHT22;26233;51.894;10.192;2022-07-10T02:09:11;16.30;38.90
40534;DHT22;26233;51.894;10.192;2022-07-10T02:11:41;16.30;39.60
40534;DHT22;26233;51.894;10.192;2022-07-10T02:14:08;16.30;39.00
40534;DHT22;26233;51.894;10.192;2022-07-10T02:16:36;16.30;39.10
40534;DHT22;26233;51.894;10.192;2022-07-10T02:19:03;16.30;39.20
40534;DHT22;26233;51.894;10.192;2022-07-10T02:21:30;16.20;39.20
40534;DHT22;26233;51.894;10.192;2022-07-10T02:23:58;16.30;39.30
40534;DHT22;26233;51.894;10.192;2022-07-10T02:26:25;16.20;39.30
40534;DHT22;26233;51.894;10.192;2022-07-10T02:28:53;16.30;39.40
40534;DHT22;26233;51.894;10.192;2022-07-10T02:31:20;16.30;39.40
40534;DHT22;26233;51.894;10.192;2022-07-10T02:33:47;16.30;39.30
40534;DHT22;26233;51.894;10.192;2022-07-10T02:36:14;16.30;39.30
40534;DHT22;26233;51.894;10.192;2022-07-10T02:38:41;16.30;39.40
40534;DHT22;26233;51.894;10.192;2022-07-10T02:41:08;16.30;39.40
40534;DHT22;26233;51.894;10.192;2022-07-10T02:43:35;16.30;39.40
40534;DHT22;26233;51.894;10.192;2022-07-10T02:46:04;16.30;39.40
40534;DHT22;26233;51.894;10.192;2022-07-10T02:48:32;16.30;39.40
40534;DHT22;26233;51.894;10.192;2022-07-10T02:50:59;16.30;39.40
40534;DHT22;26233;51.894;10.192;2022-07-10T02:53:26;16.30;39.50
40534;DHT22;26233;51.894;10.192;2022-07-10T02:55:53;16.30;39.50
40534;DHT22;26233;51.894;10.192;2022-07-10T02:58:20;16.30;39.50
40534;DHT22;26233;51.894;10.192;2022-07-10T03:00:47;16.30;39.50
40534;DHT22;26233;51.894;10.192;2022-07-10T03:03:15;16.20;39.50
40534;DHT22;26233;51.894;10.192;2022-07-10T03:05:43;16.20;39.40
40534;DHT22;26233;51.894;10.192;2022-07-10T03:08:10;16.30;39.60
40534;DHT22;26233;51.894;10.192;2022-07-10T03:10:38;16.20;39.60
40534;DHT22;26233;51.894;10.192;2022-07-10T03:13:06;16.20;39.60
40534;DHT22;26233;51.894;10.192;2022-07-10T03:15:33;16.30;39.70
40534;DHT22;26233;51.894;10.192;2022-07-10T03:18:01;16.20;40.30
40534;DHT22;26233;51.894;10.192;2022-07-10T03:20:29;16.20;39.70
40534;DHT22;26233;51.894;10.192;2022-07-10T03:22:56;16.20;39.80
40534;DHT22;26233;51.894;10.192;2022-07-10T03:25:23;16.20;39.80
40534;DHT22;26233;51.894;10.192;2022-07-10T03:27:51;16.20;39.90
40534;DHT22;26233;51.894;10.192;2022-07-10T03:30:18;16.20;39.90
40534;DHT22;26233;51.894;10.192;2022-07-10T03:32:45;16.30;40.10
40534;DHT22;26233;51.894;10.192;2022-07-10T03:35:12;16.30;40.10
40534;DHT22;26233;51.894;10.192;2022-07-10T03:37:43;16.40;40.20
40534;DHT22;26233;51.894;10.192;2022-07-10T03:40:11;16.30;40.10
40534;DHT22;26233;51.894;10.192;2022-07-10T03:42:38;16.40;40.20
40534;DHT22;26233;51.894;10.192;2022-07-10T03:45:06;16.40;40.20
40534;DHT22;26233;51.894;10.192;2022-07-10T03:47:34;16.40;40.20
40534;DHT22;26233;51.894;10.192;2022-07-10T03:50:01;16.40;40.20
40534;DHT22;26233;51.894;10.192;2022-07-10T03:52:29;16.40;40.20
40534;DHT22;26233;51.894;10.192;2022-07-10T03:54:58;16.40;40.20
40534;DHT22;26233;51.894;10.192;2022-07-10T03:57:25;16.40;40.20
40534;DHT22;26233;51.894;10.192;2022-07-10T04:00:10;16.30;40.20
40534;DHT22;26233;51.894;10.192;2022-07-10T04:02:38;16.30;40.20
40534;DHT22;26233;51.894;10.192;2022-07-10T04:05:06;16.30;40.20
40534;DHT22;26233;51.894;10.192;2022-07-10T04:07:34;16.30;40.40
40534;DHT22;26233;51.894;10.192;2022-07-10T04:10:06;16.20;40.40
40534;DHT22;26233;51.894;10.192;2022-07-10T04:12:35;16.20;40.50
40534;DHT22;26233;51.894;10.192;2022-07-10T04:15:02;16.10;40.40
40534;DHT22;26233;51.894;10.192;2022-07-10T04:17:30;16.10;40.50
40534;DHT22;26233;51.894;10.192;2022-07-10T04:19:58;16.00;40.60
40534;DHT22;26233;51.894;10.192;2022-07-10T04:22:25;16.00;40.60
40534;DHT22;26233;51.894;10.192;2022-07-10T04:24:52;16.00;40.90
40534;DHT22;26233;51.894;10.192;2022-07-10T04:27:21;15.90;40.80
40534;DHT22;26233;51.894;10.192;2022-07-10T04:29:48;15.90;40.90
40534;DHT22;26233;51.894;10.192;2022-07-10T04:32:16;15.90;41.00
40534;DHT22;26233;51.894;10.192;2022-07-10T04:34:43;15.90;41.10
40534;DHT22;26233;51.894;10.192;2022-07-10T04:37:10;16.00;41.20
40534;DHT22;26233;51.894;10.192;2022-07-10T04:39:38;15.90;41.10
40534;DHT22;26233;51.894;10.192;2022-07-10T04:42:06;15.90;41.20
40534;DHT22;26233;51.894;10.192;2022-07-10T04:44:35;16.00;41.30
40534;DHT22;26233;51.894;10.192;2022-07-10T04:47:03;15.90;41.40
40534;DHT22;26233;51.894;10.192;2022-07-10T04:49:31;16.00;41.60
40534;DHT22;26233;51.894;10.192;2022-07-10T04:52:03;16.00;41.60
40534;DHT22;26233;51.894;10.192;2022-07-10T04:54:30;15.90;41.50
40534;DHT22;26233;51.894;10.192;2022-07-10T04:56:57;16.00;41.60
40534;DHT22;26233;51.894;10.192;2022-07-10T04:59:25;16.00;41.70
40534;DHT22;26233;51.894;10.192;2022-07-10T05:01:54;16.00;41.70
40534;DHT22;26233;51.894;10.192;2022-07-10T05:04:21;16.10;42.50
40534;DHT22;26233;51.894;10.192;2022-07-10T05:06:48;16.10;41.80
40534;DHT22;26233;51.894;10.192;2022-07-10T05:09:15;16.00;41.80
40534;DHT22;26233;51.894;10.192;2022-07-10T05:11:45;16.10;42.10
40534;DHT22;26233;51.894;10.192;2022-07-10T05:14:12;16.10;42.10
40534;DHT22;26233;51.894;10.192;2022-07-10T05:16:39;16.10;42.20
40534;DHT22;26233;51.894;10.192;2022-07-10T05:19:08;16.10;42.10
40534;DHT22;26233;51.894;10.192;2022-07-10T05:21:35;16.20;42.20
40534;DHT22;26233;51.894;10.192;2022-07-10T05:24:02;16.20;42.20
40534;DHT22;26233;51.894;10.192;2022-07-10T05:26:30;16.20;42.20
40534;DHT22;26233;51.894;10.192;2022-07-10T05:28:57;16.20;42.30
40534;DHT22;26233;51.894;10.192;2022-07-10T05:31:24;16.20;42.40
40534;DHT22;26233;51.894;10.192;2022-07-10T05:33:52;16.30;42.40
40534;DHT22;26233;51.894;10.192;2022-07-10T05:36:20;16.40;42.50
40534;DHT22;26233;51.894;10.192;2022-07-10T05:38:48;16.40;42.50
40534;DHT22;26233;51.894;10.192;2022-07-10T05:41:15;16.50;42.60
40534;DHT22;26233;51.894;10.192;2022-07-10T05:43:42;16.50;42.60
40534;DHT22;26233;51.894;10.192;2022-07-10T05:46:09;16.50;43.00
40534;DHT22;26233;51.894;10.192;2022-07-10T05:48:36;16.60;42.50
40534;DHT22;26233;51.894;10.192;2022-07-10T05:51:04;16.60;42.40
40534;DHT22;26233;51.894;10.192;2022-07-10T05:53:32;16.60;42.50
40534;DHT22;26233;51.894;10.192;2022-07-10T05:56:00;16.60;42.40
40534;DHT22;26233;51.894;10.192;2022-07-10T05:58:27;16.60;42.40
40534;DHT22;26233;51.894;10.192;2022-07-10T06:00:55;16.70;42.50
40534;DHT22;26233;51.894;10.192;2022-07-10T06:03:22;16.70;42.50
40534;DHT22;26233;51.894;10.192;2022-07-10T06:05:52;16.80;42.60
40534;DHT22;26233;51.894;10.192;2022-07-10T06:08:19;16.80;42.50
40534;DHT22;26233;51.894;10.192;2022-07-10T06:10:48;16.80;42.40
40534;DHT22;26233;51.894;10.192;2022-07-10T06:13:15;16.80;42.30
40534;DHT22;26233;51.894;10.192;2022-07-10T06:15:43;16.80;42.30
40534;DHT22;26233;51.894;10.192;2022-07-10T06:18:10;16.80;42.40
40534;DHT22;26233;51.894;10.192;2022-07-10T06:20:37;16.80;42.40
40534;DHT22;26233;51.894;10.192;2022-07-10T06:23:04;16.80;42.30
40534;DHT22;26233;51.894;10.192;2022-07-10T06:25:31;16.80;42.20
40534;DHT22;26233;51.894;10.192;2022-07-10T06:27:59;16.80;42.10
40534;DHT22;26233;51.894;10.192;2022-07-10T06:30:27;16.80;42.10
40534;DHT22;26233;51.894;10.192;2022-07-10T06:32:54;16.80;42.20
40534;DHT22;26233;51.894;10.192;2022-07-10T06:35:21;16.70;42.20
40534;DHT22;26233;51.894;10.192;2022-07-10T06:37:48;16.80;42.30
40534;DHT22;26233;51.894;10.192;2022-07-10T06:40:15;16.80;42.30
40534;DHT22;26233;51.894;10.192;2022-07-10T06:42:43;16.80;42.40
40534;DHT22;26233;51.894;10.192;2022-07-10T06:45:12;16.80;42.40
40534;DHT22;26233;51.894;10.192;2022-07-10T06:47:42;16.90;42.40
40534;DHT22;26233;51.894;10.192;2022-07-10T06:50:26;16.90;42.30
40534;DHT22;26233;51.894;10.192;2022-07-10T06:52:56;17.00;42.30
40534;DHT22;26233;51.894;10.192;2022-07-10T06:55:24;17.00;42.20
40534;DHT22;26233;51.894;10.192;2022-07-10T06:57:53;17.00;42.20
40534;DHT22;26233;51.894;10.192;2022-07-10T07:00:22;17.00;42.10
40534;DHT22;26233;51.894;10.192;2022-07-10T07:02:49;17.00;42.10
40534;DHT22;26233;51.894;10.192;2022-07-10T07:05:16;17.00;42.10
40534;DHT22;26233;51.894;10.192;2022-07-10T07:07:44;17.00;42.10
40534;DHT22;26233;51.894;10.192;2022-07-10T07:10:11;17.10;42.20
40534;DHT22;26233;51.894;10.192;2022-07-10T07:12:38;17.10;42.10
40534;DHT22;26233;51.894;10.192;2022-07-10T07:15:07;17.00;42.00
40534;DHT22;26233;51.894;10.192;2022-07-10T07:17:41;17.20;42.20
40534;DHT22;26233;51.894;10.192;2022-07-10T07:20:24;17.30;42.20
40534;DHT22;26233;51.894;10.192;2022-07-10T07:23:09;17.40;42.30
40534;DHT22;26233;51.894;10.192;2022-07-10T07:25:39;17.50;42.20
40534;DHT22;26233;51.894;10.192;2022-07-10T07:28:08;17.50;42.10
40534;DHT22;26233;51.894;10.192;2022-07-10T07:30:36;17.50;41.90
40534;DHT22;26233;51.894;10.192;2022-07-10T07:33:04;17.50;42.60
40534;DHT22;26233;51.894;10.192;2022-07-10T07:35:31;17.60;42.00
40534;DHT22;26233;51.894;10.192;2022-07-10T07:37:58;17.70;42.20
40534;DHT22;26233;51.894;10.192;2022-07-10T07:40:28;17.70;42.30
40534;DHT22;26233;51.894;10.192;2022-07-10T07:42:55;17.90;42.70
40534;DHT22;26233;51.894;10.192;2022-07-10T07:45:23;18.00;42.80
40534;DHT22;26233;51.894;10.192;2022-07-10T07:47:54;18.20;42.70
40534;DHT22;26233;51.894;10.192;2022-07-10T07:50:24;18.40;42.40
40534;DHT22;26233;51.894;10.192;2022-07-10T07:52:53;18.50;42.00
40534;DHT22;26233;51.894;10.192;2022-07-10T07:55:21;18.50;41.70
40534;DHT22;26233;51.894;10.192;2022-07-10T07:57:51;18.60;41.90
40534;DHT22;26233;51.894;10.192;2022-07-10T08:00:20;18.70;42.00
40534;DHT22;26233;51.894;10.192;2022-07-10T08:02:49;18.70;41.80
40534;DHT22;26233;51.894;10.192;2022-07-10T08:05:16;18.80;41.80
40534;DHT22;26233;51.894;10.192;2022-07-10T08:07:47;18.80;41.70
40534;DHT22;26233;51.894;10.192;2022-07-10T08:10:18;18.80;41.50
40534;DHT22;26233;51.894;10.192;2022-07-10T08:12:46;18.80;41.30
40534;DHT22;26233;51.894;10.192;2022-07-10T08:15:16;18.80;41.40
40534;DHT22;26233;51.894;10.192;2022-07-10T08:17:48;18.90;42.00
40534;DHT22;26233;51.894;10.192;2022-07-10T08:20:16;19.20;43.10
40534;DHT22;26233;51.894;10.192;2022-07-10T08:22:45;19.60;44.40
40534;DHT22;26233;51.894;10.192;2022-07-10T08:25:14;20.20;45.30
40534;DHT22;26233;51.894;10.192;2022-07-10T08:27:42;20.80;45.20
40534;DHT22;26233;51.894;10.192;2022-07-10T08:30:10;21.40;45.10
40534;DHT22;26233;51.894;10.192;2022-07-10T08:32:38;21.90;44.00
40534;DHT22;26233;51.894;10.192;2022-07-10T08:35:07;22.30;42.70
40534;DHT22;26233;51.894;10.192;2022-07-10T08:37:38;22.70;42.60
40534;DHT22;26233;51.894;10.192;2022-07-10T08:40:11;22.90;41.70
40534;DHT22;26233;51.894;10.192;2022-07-10T08:42:40;23.00;41.50
40534;DHT22;26233;51.894;10.192;2022-07-10T08:45:09;23.20;40.60
40534;DHT22;26233;51.894;10.192;2022-07-10T08:47:38;23.20;40.60
40534;DHT22;26233;51.894;10.192;2022-07-10T08:50:16;23.30;40.80
40534;DHT22;26233;51.894;10.192;2022-07-10T08:52:51;23.30;39.80
40534;DHT22;26233;51.894;10.192;2022-07-10T08:55:24;23.30;39.50
40534;DHT22;26233;51.894;10.192;2022-07-10T08:57:52;23.20;39.00
40534;DHT22;26233;51.894;10.192;2022-07-10T09:00:21;23.20;39.50
40534;DHT22;26233;51.894;10.192;2022-07-10T09:02:49;23.30;40.40
40534;DHT22;26233;51.894;10.192;2022-07-10T09:05:16;23.50;41.00
40534;DHT22;26233;51.894;10.192;2022-07-10T09:07:43;23.80;40.50
40534;DHT22;26233;51.894;10.192;2022-07-10T09:10:14;23.90;39.50
40534;DHT22;26233;51.894;10.192;2022-07-10T09:12:54;23.90;38.60
40534;DHT22;26233;51.894;10.192;2022-07-10T09:15:23;23.80;37.70
40534;DHT22;26233;51.894;10.192;2022-07-10T09:17:53;23.50;37.60
40534;DHT22;26233;51.894;10.192;2022-07-10T09:20:30;23.30;37.30
40534;DHT22;26233;51.894;10.192;2022-07-10T09:22:59;23.10;37.00
40534;DHT22;26233;51.894;10.192;2022-07-10T09:25:36;22.80;37.10
40534;DHT22;26233;51.894;10.192;2022-07-10T09:28:05;22.50;36.90
40534;DHT22;26233;51.894;10.192;2022-07-10T09:30:36;22.40;38.30
40534;DHT22;26233;51.894;10.192;2022-07-10T09:33:21;22.40;38.30
40534;DHT22;26233;51.894;10.192;2022-07-10T09:36:05;22.40;38.50
40534;DHT22;26233;51.894;10.192;2022-07-10T09:38:50;22.40;37.60
40534;DHT22;26233;51.894;10.192;2022-07-10T09:41:22;22.30;37.20
40534;DHT22;26233;51.894;10.192;2022-07-10T09:43:53;22.10;37.10
40534;DHT22;26233;51.894;10.192;2022-07-10T09:46:24;22.00;36.80
40534;DHT22;26233;51.894;10.192;2022-07-10T09:49:02;21.80;37.10
40534;DHT22;26233;51.894;10.192;2022-07-10T09:51:36;21.70;37.10
40534;DHT22;26233;51.894;10.192;2022-07-10T09:54:05;21.90;38.70
40534;DHT22;26233;51.894;10.192;2022-07-10T09:56:39;22.30;40.50
40534;DHT22;26233;51.894;10.192;2022-07-10T09:59:11;22.80;40.50
40534;DHT22;26233;51.894;10.192;2022-07-10T10:01:43;23.20;39.90
40534;DHT22;26233;51.894;10.192;2022-07-10T10:04:15;23.50;38.50
40534;DHT22;26233;51.894;10.192;2022-07-10T10:06:46;23.70;38.10
40534;DHT22;26233;51.894;10.192;2022-07-10T10:09:19;23.70;37.20
40534;DHT22;26233;51.894;10.192;2022-07-10T10:11:54;23.60;36.40
40534;DHT22;26233;51.894;10.192;2022-07-10T10:14:26;23.60;36.50
40534;DHT22;26233;51.894;10.192;2022-07-10T10:16:55;23.70;37.20
40534;DHT22;26233;51.894;10.192;2022-07-10T10:19:24;23.90;38.10
40534;DHT22;26233;51.894;10.192;2022-07-10T10:22:08;24.10;37.70
40534;DHT22;26233;51.894;10.192;2022-07-10T10:24:38;24.30;36.90
40534;DHT22;26233;51.894;10.192;2022-07-10T10:27:06;24.20;35.60
40534;DHT22;26233;51.894;10.192;2022-07-10T10:29:36;24.00;34.90
40534;DHT22;26233;51.894;10.192;2022-07-10T10:32:04;23.70;34.50
40534;DHT22;26233;51.894;10.192;2022-07-10T10:34:40;23.40;34.50
40534;DHT22;26233;51.894;10.192;2022-07-10T10:37:32;23.10;34.40
40534;DHT22;26233;51.894;10.192;2022-07-10T10:40:02;22.70;34.60
40534;DHT22;26233;51.894;10.192;2022-07-10T10:42:38;22.30;34.80
40534;DHT22;26233;51.894;10.192;2022-07-10T10:45:30;22.10;34.90
40534;DHT22;26233;51.894;10.192;2022-07-10T10:48:05;21.80;35.20
40534;DHT22;26233;51.894;10.192;2022-07-10T10:50:40;21.70;35.60
40534;DHT22;26233;51.894;10.192;2022-07-10T10:53:15;21.80;37.00
40534;DHT22;26233;51.894;10.192;2022-07-10T10:56:23;22.00;37.90
40534;DHT22;26233;51.894;10.192;2022-07-10T10:58:50;22.60;38.00
40534;DHT22;26233;51.894;10.192;2022-07-10T11:01:27;23.00;38.30
40534;DHT22;26233;51.894;10.192;2022-07-10T11:04:17;23.30;37.70
40534;DHT22;26233;51.894;10.192;2022-07-10T11:06:47;23.60;36.80
40534;DHT22;26233;51.894;10.192;2022-07-10T11:09:22;23.80;36.60
40534;DHT22;26233;51.894;10.192;2022-07-10T11:12:01;23.80;36.00
40534;DHT22;26233;51.894;10.192;2022-07-10T11:14:31;23.70;35.50
40534;DHT22;26233;51.894;10.192;2022-07-10T11:17:00;23.60;35.20
40534;DHT22;26233;51.894;10.192;2022-07-10T11:19:29;23.50;35.30
40534;DHT22;26233;51.894;10.192;2022-07-10T11:25:25;23.80;36.30
40534;DHT22;26233;51.894;10.192;2022-07-10T11:28:08;24.20;36.60
40534;DHT22;26233;51.894;10.192;2022-07-10T11:30:49;24.40;35.90
40534;DHT22;26233;51.894;10.192;2022-07-10T11:33:20;24.60;35.10
40534;DHT22;26233;51.894;10.192;2022-07-10T11:35:49;24.70;35.90
40534;DHT22;26233;51.894;10.192;2022-07-10T11:38:21;25.00;36.20
40534;DHT22;26233;51.894;10.192;2022-07-10T11:40:49;25.20;36.20
40534;DHT22;26233;51.894;10.192;2022-07-10T11:43:18;25.50;36.70
40534;DHT22;26233;51.894;10.192;2022-07-10T11:45:49;25.70;35.70
40534;DHT22;26233;51.894;10.192;2022-07-10T11:48:22;25.70;34.70
40534;DHT22;26233;51.894;10.192;2022-07-10T11:50:50;25.70;33.80
40534;DHT22;26233;51.894;10.192;2022-07-10T11:53:24;25.50;33.70
40534;DHT22;26233;51.894;10.192;2022-07-10T11:55:51;25.40;33.80
40534;DHT22;26233;51.894;10.192;2022-07-10T11:58:19;25.20;33.60
40534;DHT22;26233;51.894;10.192;2022-07-10T12:00:57;25.10;33.60
40534;DHT22;26233;51.894;10.192;2022-07-10T12:03:28;25.00;33.00
40534;DHT22;26233;51.894;10.192;2022-07-10T12:06:01;24.80;33.10
40534;DHT22;26233;51.894;10.192;2022-07-10T12:08:30;24.60;33.30
40534;DHT22;26233;51.894;10.192;2022-07-10T12:11:12;24.50;33.60
40534;DHT22;26233;51.894;10.192;2022-07-10T12:13:39;24.40;33.50
40534;DHT22;26233;51.894;10.192;2022-07-10T12:16:06;24.30;33.50
40534;DHT22;26233;51.894;10.192;2022-07-10T12:18:35;24.20;33.30
40534;DHT22;26233;51.894;10.192;2022-07-10T12:21:02;24.10;33.20
40534;DHT22;26233;51.894;10.192;2022-07-10T12:23:30;24.00;33.10
40534;DHT22;26233;51.894;10.192;2022-07-10T12:25:58;23.80;33.00
40534;DHT22;26233;51.894;10.192;2022-07-10T12:28:25;23.70;33.10
40534;DHT22;26233;51.894;10.192;2022-07-10T12:30:52;23.60;33.20
40534;DHT22;26233;51.894;10.192;2022-07-10T12:33:22;23.40;33.00
40534;DHT22;26233;51.894;10.192;2022-07-10T12:35:53;23.40;33.50
40534;DHT22;26233;51.894;10.192;2022-07-10T12:38:22;23.40;34.10
40534;DHT22;26233;51.894;10.192;2022-07-10T12:40:58;23.50;33.90
40534;DHT22;26233;51.894;10.192;2022-07-10T12:43:32;23.50;33.60
40534;DHT22;26233;51.894;10.192;2022-07-10T12:46:11;23.50;33.20
40534;DHT22;26233;51.894;10.192;2022-07-10T12:48:42;23.40;33.00
40534;DHT22;26233;51.894;10.192;2022-07-10T12:51:28;23.30;33.90
40534;DHT22;26233;51.894;10.192;2022-07-10T12:53:55;23.30;33.40
40534;DHT22;26233;51.894;10.192;2022-07-10T12:56:27;23.30;33.70
40534;DHT22;26233;51.894;10.192;2022-07-10T12:58:55;23.20;33.50
40534;DHT22;26233;51.894;10.192;2022-07-10T13:01:23;23.20;33.50
40534;DHT22;26233;51.894;10.192;2022-07-10T13:03:57;23.10;33.40
40534;DHT22;26233;51.894;10.192;2022-07-10T13:06:28;23.00;33.20
40534;DHT22;26233;51.894;10.192;2022-07-10T13:08:56;22.90;33.20
40534;DHT22;26233;51.894;10.192;2022-07-10T13:11:23;22.90;33.20
40534;DHT22;26233;51.894;10.192;2022-07-10T13:13:50;22.70;33.00
40534;DHT22;26233;51.894;10.192;2022-07-10T13:16:21;22.60;33.10
40534;DHT22;26233;51.894;10.192;2022-07-10T13:18:49;22.50;33.20
40534;DHT22;26233;51.894;10.192;2022-07-10T13:21:17;22.40;33.30
40534;DHT22;26233;51.894;10.192;2022-07-10T13:23:45;22.30;33.50
40534;DHT22;26233;51.894;10.192;2022-07-10T13:26:13;22.30;33.60
40534;DHT22;26233;51.894;10.192;2022-07-10T13:31:09;22.20;33.80
40534;DHT22;26233;51.894;10.192;2022-07-10T13:33:38;22.20;33.80
40534;DHT22;26233;51.894;10.192;2022-07-10T13:36:05;22.20;33.90
40534;DHT22;26233;51.894;10.192;2022-07-10T13:38:34;22.10;33.90
40534;DHT22;26233;51.894;10.192;2022-07-10T13:41:04;22.10;34.00
40534;DHT22;26233;51.894;10.192;2022-07-10T13:43:32;22.00;34.00
40534;DHT22;26233;51.894;10.192;2022-07-10T13:46:01;22.00;34.00
40534;DHT22;26233;51.894;10.192;2022-07-10T13:48:29;21.90;34.00
40534;DHT22;26233;51.894;10.192;2022-07-10T13:50:58;21.80;34.80
40534;DHT22;26233;51.894;10.192;2022-07-10T13:53:25;21.70;34.20
40534;DHT22;26233;51.894;10.192;2022-07-10T13:55:52;21.60;34.30
40534;DHT22;26233;51.894;10.192;2022-07-10T13:58:22;21.60;34.40
40534;DHT22;26233;51.894;10.192;2022-07-10T14:00:50;21.60;34.50
40534;DHT22;26233;51.894;10.192;2022-07-10T14:03:17;21.60;34.70
40534;DHT22;26233;51.894;10.192;2022-07-10T14:05:44;21.50;34.60
40534;DHT22;26233;51.894;10.192;2022-07-10T14:08:11;21.50;34.70
40534;DHT22;26233;51.894;10.192;2022-07-10T14:10:38;21.50;34.70
40534;DHT22;26233;51.894;10.192;2022-07-10T14:13:05;21.40;34.70
40534;DHT22;26233;51.894;10.192;2022-07-10T14:15:35;21.40;34.80
40534;DHT22;26233;51.894;10.192;2022-07-10T14:18:02;21.30;34.80
40534;DHT22;26233;51.894;10.192;2022-07-10T14:20:31;21.30;34.90
40534;DHT22;26233;51.894;10.192;2022-07-10T14:23:19;21.30;35.10
40534;DHT22;26233;51.894;10.192;2022-07-10T14:25:46;21.20;35.00
40534;DHT22;26233;51.894;10.192;2022-07-10T14:28:13;21.20;35.10
40534;DHT22;26233;51.894;10.192;2022-07-10T14:30:42;21.20;35.00
40534;DHT22;26233;51.894;10.192;2022-07-10T14:33:09;21.20;35.10
40534;DHT22;26233;51.894;10.192;2022-07-10T14:35:36;21.10;35.10
40534;DHT22;26233;51.894;10.192;2022-07-10T14:38:03;21.00;35.10
40534;DHT22;26233;51.894;10.192;2022-07-10T14:40:30;20.90;35.10
40534;DHT22;26233;51.894;10.192;2022-07-10T14:42:58;20.90;35.10
40534;DHT22;26233;51.894;10.192;2022-07-10T14:45:25;20.80;35.10
40534;DHT22;26233;51.894;10.192;2022-07-10T14:47:53;20.70;35.20
40534;DHT22;26233;51.894;10.192;2022-07-10T14:50:21;20.70;35.40
40534;DHT22;26233;51.894;10.192;2022-07-10T14:52:49;20.60;35.60
40534;DHT22;26233;51.894;10.192;2022-07-10T14:55:16;20.60;35.80
40534;DHT22;26233;51.894;10.192;2022-07-10T14:57:43;20.50;35.90
40534;DHT22;26233;51.894;10.192;2022-07-10T15:00:11;20.60;36.20
40534;DHT22;26233;51.894;10.192;2022-07-10T15:02:39;20.60;36.40
40534;DHT22;26233;51.894;10.192;2022-07-10T15:05:08;20.70;36.50
40534;DHT22;26233;51.894;10.192;2022-07-10T15:07:35;20.70;36.50
40534;DHT22;26233;51.894;10.192;2022-07-10T15:10:02;20.80;36.80
40534;DHT22;26233;51.894;10.192;2022-07-10T15:12:30;20.90;36.60
40534;DHT22;26233;51.894;10.192;2022-07-10T15:14:58;20.90;37.20
40534;DHT22;26233;51.894;10.192;2022-07-10T15:17:25;21.00;36.60
40534;DHT22;26233;51.894;10.192;2022-07-10T15:19:53;21.00;36.50
40534;DHT22;26233;51.894;10.192;2022-07-10T15:22:22;21.00;36.50
40534;DHT22;26233;51.894;10.192;2022-07-10T15:24:49;21.00;36.60
40534;DHT22;26233;51.894;10.192;2022-07-10T15:27:16;21.10;36.70
40534;DHT22;26233;51.894;10.192;2022-07-10T15:29:43;21.10;36.70
40534;DHT22;26233;51.894;10.192;2022-07-10T15:32:11;21.10;36.60
40534;DHT22;26233;51.894;10.192;2022-07-10T15:34:38;21.10;36.60